Shannon, GA

10:08 AM EST on February 08, 2016 (GMT -0500)
Russell | | Change Station
CLOSE
Current Station
Airport
Location: Rome,
Elevation: 643 ft
Nearby Weather Stations

Elev 643 ft 34.35 °N, 85.16 °W | Updated 15 minutes ago

Overcast
Overcast
42 °F
Feels Like 38 °F
N
7
Wind Variable Wind from WSW

Today
High -- | Low -- °F
--% Chance of Precip.
Yesterday
High -- | Low -- °F
Precip. -- in
Pressure 29.81 in
Visibility 10.0 miles
Clouds Mostly Cloudy 12000 ft
Windchill 38 °F
Dew Point 31 °F
Humidity 65%
Rainfall 0.00 in
Snow Depth Not available.
7:32 AM 6:17 PM
New Moon, 0% visible
METAR KRMG 081453Z AUTO 24006KT 10SM BKN120 06/M01 A2981 RMK AO2 SLP095 T00561006 58007
Pressure 29.81 in
Visibility 10.0 miles
Clouds Mostly Cloudy 12000 ft
Windchill 38 °F
Dew Point 31 °F
Humidity 65%
Rainfall 0.00 in
Snow Depth Not available.
7:32 AM 6:17 PM
New Moon, 0% visible
METAR KRMG 081453Z AUTO 24006KT 10SM BKN120 06/M01 A2981 RMK AO2 SLP095 T00561006 58007

10-Day Weather Forecast

Almanac

Astronomy

Feb. 08, 2016 Rise Set
Actual Time
Civil Twilight
Nautical Twilight
Astronomical Twilight
Moon
Length of Visible Light
Length of Day
Tomorrow will be .
, % of the Moon is Illuminated

Today's Extremes

State Highs State Lows

Community

WunderPhotos

Upload Photos

1,891,446 photos uploaded!

WunderBlog® & News

Nearby

Air Quality

  Air Quality AQ Index Pollutant
Not available.

Snow Depth

Station Depth Elevation

Earthquake Activity

City Distance Mag. Time & Date
Minimum magnitude displayed is 2.5.

Coastal Water Temperatures

Place Temperature

Stations

Nearby Weather Stations

Station Location Temp. Windchill Dew Point Humidity Wind Precip. Elev Updated Type
                   

Watches & Warnings

There are currently no watches in effect.